sensor_id;sensor_type;location;lat;lon;timestamp;P1;durP1;ratioP1;P2;durP2;ratioP2
11685;SDS011;5899;51.282;6.094;2023-02-24T00:00:59;10.53;;;2.77;;
11685;SDS011;5899;51.282;6.094;2023-02-24T00:03:34;7.30;;;3.57;;
11685;SDS011;5899;51.282;6.094;2023-02-24T00:06:02;8.60;;;3.17;;
11685;SDS011;5899;51.282;6.094;2023-02-24T00:08:34;8.57;;;3.10;;
11685;SDS011;5899;51.282;6.094;2023-02-24T00:11:05;9.40;;;3.03;;
11685;SDS011;5899;51.282;6.094;2023-02-24T00:13:33;12.38;;;3.67;;
11685;SDS011;5899;51.282;6.094;2023-02-24T00:16:00;8.05;;;3.00;;
11685;SDS011;5899;51.282;6.094;2023-02-24T00:18:27;8.88;;;2.55;;
11685;SDS011;5899;51.282;6.094;2023-02-24T00:20:57;13.60;;;3.70;;
11685;SDS011;5899;51.282;6.094;2023-02-24T00:23:35;9.73;;;3.40;;
11685;SDS011;5899;51.282;6.094;2023-02-24T00:26:02;8.37;;;3.00;;
11685;SDS011;5899;51.282;6.094;2023-02-24T00:28:33;8.18;;;2.92;;
11685;SDS011;5899;51.282;6.094;2023-02-24T00:31:02;10.30;;;3.08;;
11685;SDS011;5899;51.282;6.094;2023-02-24T00:33:32;12.82;;;4.05;;
11685;SDS011;5899;51.282;6.094;2023-02-24T00:36:09;16.43;;;4.63;;
11685;SDS011;5899;51.282;6.094;2023-02-24T00:38:36;10.70;;;3.47;;
11685;SDS011;5899;51.282;6.094;2023-02-24T00:41:07;9.77;;;3.33;;
11685;SDS011;5899;51.282;6.094;2023-02-24T00:43:38;12.43;;;3.45;;
11685;SDS011;5899;51.282;6.094;2023-02-24T00:46:05;9.07;;;3.40;;
11685;SDS011;5899;51.282;6.094;2023-02-24T00:48:36;8.65;;;2.78;;
11685;SDS011;5899;51.282;6.094;2023-02-24T00:51:06;8.48;;;2.65;;
11685;SDS011;5899;51.282;6.094;2023-02-24T00:53:35;7.97;;;2.80;;
11685;SDS011;5899;51.282;6.094;2023-02-24T00:56:04;12.60;;;3.70;;
11685;SDS011;5899;51.282;6.094;2023-02-24T00:58:32;7.85;;;2.67;;
11685;SDS011;5899;51.282;6.094;2023-02-24T01:00:59;12.25;;;3.28;;
11685;SDS011;5899;51.282;6.094;2023-02-24T01:03:32;13.25;;;3.38;;
11685;SDS011;5899;51.282;6.094;2023-02-24T01:06:01;11.13;;;3.22;;
11685;SDS011;5899;51.282;6.094;2023-02-24T01:08:30;13.48;;;2.97;;
11685;SDS011;5899;51.282;6.094;2023-02-24T01:11:02;9.68;;;2.83;;
11685;SDS011;5899;51.282;6.094;2023-02-24T01:13:48;8.45;;;3.13;;
11685;SDS011;5899;51.282;6.094;2023-02-24T01:16:15;8.27;;;2.95;;
11685;SDS011;5899;51.282;6.094;2023-02-24T01:18:47;13.30;;;2.85;;
11685;SDS011;5899;51.282;6.094;2023-02-24T01:21:15;14.30;;;4.23;;
11685;SDS011;5899;51.282;6.094;2023-02-24T01:23:43;10.15;;;3.03;;
11685;SDS011;5899;51.282;6.094;2023-02-24T01:26:13;7.68;;;3.78;;
11685;SDS011;5899;51.282;6.094;2023-02-24T01:28:42;10.27;;;3.28;;
11685;SDS011;5899;51.282;6.094;2023-02-24T01:31:10;9.87;;;3.07;;
11685;SDS011;5899;51.282;6.094;2023-02-24T01:33:36;12.40;;;3.25;;
11685;SDS011;5899;51.282;6.094;2023-02-24T01:36:07;8.47;;;3.03;;
11685;SDS011;5899;51.282;6.094;2023-02-24T01:38:37;11.20;;;3.72;;
11685;SDS011;5899;51.282;6.094;2023-02-24T01:41:06;13.18;;;3.90;;
11685;SDS011;5899;51.282;6.094;2023-02-24T01:46:16;12.63;;;3.25;;
11685;SDS011;5899;51.282;6.094;2023-02-24T01:48:47;9.68;;;3.22;;
11685;SDS011;5899;51.282;6.094;2023-02-24T01:51:17;11.45;;;3.47;;
11685;SDS011;5899;51.282;6.094;2023-02-24T01:53:46;9.20;;;3.45;;
11685;SDS011;5899;51.282;6.094;2023-02-24T01:56:15;14.83;;;3.90;;
11685;SDS011;5899;51.282;6.094;2023-02-24T01:58:46;11.30;;;3.70;;
11685;SDS011;5899;51.282;6.094;2023-02-24T02:01:14;6.93;;;2.80;;
11685;SDS011;5899;51.282;6.094;2023-02-24T02:03:46;10.68;;;3.40;;
11685;SDS011;5899;51.282;6.094;2023-02-24T02:06:13;13.45;;;3.83;;
11685;SDS011;5899;51.282;6.094;2023-02-24T02:08:45;9.95;;;3.47;;
11685;SDS011;5899;51.282;6.094;2023-02-24T02:11:13;10.15;;;3.22;;
11685;SDS011;5899;51.282;6.094;2023-02-24T02:13:46;10.23;;;3.33;;
11685;SDS011;5899;51.282;6.094;2023-02-24T02:16:22;9.23;;;3.35;;
11685;SDS011;5899;51.282;6.094;2023-02-24T02:18:56;11.23;;;3.30;;
11685;SDS011;5899;51.282;6.094;2023-02-24T02:27:13;9.32;;;3.55;;
11685;SDS011;5899;51.282;6.094;2023-02-24T02:32:45;9.68;;;3.30;;
11685;SDS011;5899;51.282;6.094;2023-02-24T02:35:27;7.43;;;3.13;;
11685;SDS011;5899;51.282;6.094;2023-02-24T02:38:04;11.68;;;3.53;;
11685;SDS011;5899;51.282;6.094;2023-02-24T02:40:36;8.27;;;3.50;;
11685;SDS011;5899;51.282;6.094;2023-02-24T02:43:05;12.02;;;4.03;;
11685;SDS011;5899;51.282;6.094;2023-02-24T02:45:37;7.97;;;3.33;;
11685;SDS011;5899;51.282;6.094;2023-02-24T02:48:05;10.30;;;3.05;;
11685;SDS011;5899;51.282;6.094;2023-02-24T02:50:35;8.38;;;3.28;;
11685;SDS011;5899;51.282;6.094;2023-02-24T02:53:09;9.73;;;3.05;;
11685;SDS011;5899;51.282;6.094;2023-02-24T02:55:39;8.55;;;3.45;;
11685;SDS011;5899;51.282;6.094;2023-02-24T02:58:08;7.00;;;3.00;;
11685;SDS011;5899;51.282;6.094;2023-02-24T03:00:41;7.28;;;3.20;;
11685;SDS011;5899;51.282;6.094;2023-02-24T03:03:14;11.85;;;3.90;;
11685;SDS011;5899;51.282;6.094;2023-02-24T03:05:50;10.57;;;3.45;;
11685;SDS011;5899;51.282;6.094;2023-02-24T03:08:35;9.48;;;3.95;;
11685;SDS011;5899;51.282;6.094;2023-02-24T03:11:06;11.18;;;3.33;;
11685;SDS011;5899;51.282;6.094;2023-02-24T03:13:37;8.02;;;3.03;;
11685;SDS011;5899;51.282;6.094;2023-02-24T03:16:07;8.98;;;2.97;;
11685;SDS011;5899;51.282;6.094;2023-02-24T03:18:36;10.85;;;3.58;;
11685;SDS011;5899;51.282;6.094;2023-02-24T03:21:07;8.00;;;3.10;;
11685;SDS011;5899;51.282;6.094;2023-02-24T03:23:34;8.88;;;3.92;;
11685;SDS011;5899;51.282;6.094;2023-02-24T03:26:03;7.30;;;3.38;;
11685;SDS011;5899;51.282;6.094;2023-02-24T03:28:35;7.78;;;3.08;;
11685;SDS011;5899;51.282;6.094;2023-02-24T03:31:04;9.05;;;3.25;;
11685;SDS011;5899;51.282;6.094;2023-02-24T03:33:35;10.35;;;3.78;;
11685;SDS011;5899;51.282;6.094;2023-02-24T03:36:08;6.57;;;3.08;;
11685;SDS011;5899;51.282;6.094;2023-02-24T03:38:39;6.80;;;2.87;;
11685;SDS011;5899;51.282;6.094;2023-02-24T03:41:07;7.10;;;3.15;;
11685;SDS011;5899;51.282;6.094;2023-02-24T03:43:35;7.75;;;3.08;;
11685;SDS011;5899;51.282;6.094;2023-02-24T03:46:03;6.38;;;2.70;;
11685;SDS011;5899;51.282;6.094;2023-02-24T03:48:30;9.27;;;3.60;;
11685;SDS011;5899;51.282;6.094;2023-02-24T03:50:58;9.77;;;3.13;;
11685;SDS011;5899;51.282;6.094;2023-02-24T03:53:30;7.88;;;2.72;;
11685;SDS011;5899;51.282;6.094;2023-02-24T03:56:06;11.32;;;4.13;;
11685;SDS011;5899;51.282;6.094;2023-02-24T03:58:42;11.77;;;3.60;;
11685;SDS011;5899;51.282;6.094;2023-02-24T04:01:13;7.03;;;3.13;;
11685;SDS011;5899;51.282;6.094;2023-02-24T04:03:48;6.82;;;3.38;;
11685;SDS011;5899;51.282;6.094;2023-02-24T04:06:26;9.17;;;2.80;;
11685;SDS011;5899;51.282;6.094;2023-02-24T04:09:02;7.90;;;3.17;;
11685;SDS011;5899;51.282;6.094;2023-02-24T04:11:35;8.52;;;2.97;;
11685;SDS011;5899;51.282;6.094;2023-02-24T04:14:04;6.53;;;2.72;;
11685;SDS011;5899;51.282;6.094;2023-02-24T04:16:34;10.57;;;3.63;;
11685;SDS011;5899;51.282;6.094;2023-02-24T04:19:08;9.48;;;3.42;;
11685;SDS011;5899;51.282;6.094;2023-02-24T04:21:35;9.70;;;3.13;;
11685;SDS011;5899;51.282;6.094;2023-02-24T04:24:07;8.75;;;3.00;;
11685;SDS011;5899;51.282;6.094;2023-02-24T04:26:39;8.93;;;3.22;;
11685;SDS011;5899;51.282;6.094;2023-02-24T04:29:10;8.63;;;3.53;;
11685;SDS011;5899;51.282;6.094;2023-02-24T04:31:42;7.82;;;2.88;;
11685;SDS011;5899;51.282;6.094;2023-02-24T04:34:10;5.43;;;2.80;;
11685;SDS011;5899;51.282;6.094;2023-02-24T04:36:44;6.85;;;3.22;;
11685;SDS011;5899;51.282;6.094;2023-02-24T04:39:15;8.27;;;3.40;;
11685;SDS011;5899;51.282;6.094;2023-02-24T04:41:46;10.37;;;3.83;;
11685;SDS011;5899;51.282;6.094;2023-02-24T04:44:14;5.55;;;2.50;;
11685;SDS011;5899;51.282;6.094;2023-02-24T04:46:42;7.78;;;3.42;;
11685;SDS011;5899;51.282;6.094;2023-02-24T04:49:16;10.35;;;3.15;;
11685;SDS011;5899;51.282;6.094;2023-02-24T04:51:43;10.55;;;4.07;;
11685;SDS011;5899;51.282;6.094;2023-02-24T04:54:17;12.20;;;4.13;;
11685;SDS011;5899;51.282;6.094;2023-02-24T04:56:44;7.28;;;3.70;;
11685;SDS011;5899;51.282;6.094;2023-02-24T04:59:12;8.05;;;3.45;;
11685;SDS011;5899;51.282;6.094;2023-02-24T05:01:40;7.20;;;3.70;;
11685;SDS011;5899;51.282;6.094;2023-02-24T05:04:08;9.30;;;3.42;;
11685;SDS011;5899;51.282;6.094;2023-02-24T05:06:37;8.40;;;3.80;;
11685;SDS011;5899;51.282;6.094;2023-02-24T05:09:08;7.25;;;3.83;;
11685;SDS011;5899;51.282;6.094;2023-02-24T05:11:41;10.25;;;4.55;;
11685;SDS011;5899;51.282;6.094;2023-02-24T05:14:10;8.27;;;3.88;;
11685;SDS011;5899;51.282;6.094;2023-02-24T05:16:39;7.15;;;3.35;;
11685;SDS011;5899;51.282;6.094;2023-02-24T05:19:06;11.33;;;3.67;;
11685;SDS011;5899;51.282;6.094;2023-02-24T05:21:52;8.95;;;3.25;;
11685;SDS011;5899;51.282;6.094;2023-02-24T05:24:22;7.85;;;2.85;;
11685;SDS011;5899;51.282;6.094;2023-02-24T05:26:58;8.23;;;3.00;;
11685;SDS011;5899;51.282;6.094;2023-02-24T05:29:26;7.45;;;3.05;;
11685;SDS011;5899;51.282;6.094;2023-02-24T05:31:54;6.93;;;3.22;;
11685;SDS011;5899;51.282;6.094;2023-02-24T05:34:23;7.30;;;3.38;;
11685;SDS011;5899;51.282;6.094;2023-02-24T05:36:50;6.93;;;3.28;;
11685;SDS011;5899;51.282;6.094;2023-02-24T05:39:17;9.43;;;3.67;;
11685;SDS011;5899;51.282;6.094;2023-02-24T05:41:44;9.25;;;4.00;;
11685;SDS011;5899;51.282;6.094;2023-02-24T05:44:15;6.97;;;3.50;;
11685;SDS011;5899;51.282;6.094;2023-02-24T05:46:46;7.05;;;3.58;;
11685;SDS011;5899;51.282;6.094;2023-02-24T05:49:14;7.15;;;3.25;;
11685;SDS011;5899;51.282;6.094;2023-02-24T05:51:45;7.55;;;3.53;;
11685;SDS011;5899;51.282;6.094;2023-02-24T05:54:18;6.97;;;3.42;;
11685;SDS011;5899;51.282;6.094;2023-02-24T05:56:46;8.73;;;3.38;;
11685;SDS011;5899;51.282;6.094;2023-02-24T05:59:15;10.75;;;3.65;;
11685;SDS011;5899;51.282;6.094;2023-02-24T06:01:46;10.83;;;3.77;;
11685;SDS011;5899;51.282;6.094;2023-02-24T06:04:13;10.27;;;3.70;;
11685;SDS011;5899;51.282;6.094;2023-02-24T06:07:03;7.07;;;3.50;;
11685;SDS011;5899;51.282;6.094;2023-02-24T06:09:30;10.15;;;3.47;;
11685;SDS011;5899;51.282;6.094;2023-02-24T06:11:56;7.87;;;3.57;;
11685;SDS011;5899;51.282;6.094;2023-02-24T06:14:24;5.57;;;2.95;;
11685;SDS011;5899;51.282;6.094;2023-02-24T06:16:55;8.57;;;3.10;;
11685;SDS011;5899;51.282;6.094;2023-02-24T06:19:23;4.13;;;2.38;;
11685;SDS011;5899;51.282;6.094;2023-02-24T06:21:50;6.50;;;3.05;;
11685;SDS011;5899;51.282;6.094;2023-02-24T06:24:16;6.37;;;2.80;;
11685;SDS011;5899;51.282;6.094;2023-02-24T06:26:43;4.75;;;2.53;;
11685;SDS011;5899;51.282;6.094;2023-02-24T06:29:11;6.25;;;2.55;;
11685;SDS011;5899;51.282;6.094;2023-02-24T06:31:41;5.25;;;2.88;;
11685;SDS011;5899;51.282;6.094;2023-02-24T06:34:12;4.53;;;3.53;;
11685;SDS011;5899;51.282;6.094;2023-02-24T06:36:45;5.05;;;2.80;;
11685;SDS011;5899;51.282;6.094;2023-02-24T06:39:15;5.70;;;2.60;;
11685;SDS011;5899;51.282;6.094;2023-02-24T06:41:43;7.65;;;2.80;;
11685;SDS011;5899;51.282;6.094;2023-02-24T06:44:10;4.88;;;2.40;;
11685;SDS011;5899;51.282;6.094;2023-02-24T06:46:37;4.93;;;2.70;;
11685;SDS011;5899;51.282;6.094;2023-02-24T06:49:06;8.82;;;2.70;;
11685;SDS011;5899;51.282;6.094;2023-02-24T06:51:34;5.65;;;2.75;;
11685;SDS011;5899;51.282;6.094;2023-02-24T06:54:01;9.23;;;3.60;;
11685;SDS011;5899;51.282;6.094;2023-02-24T06:56:27;5.47;;;2.88;;
11685;SDS011;5899;51.282;6.094;2023-02-24T06:59:03;6.88;;;2.70;;
11685;SDS011;5899;51.282;6.094;2023-02-24T07:01:31;4.57;;;2.80;;
11685;SDS011;5899;51.282;6.094;2023-02-24T07:03:59;6.68;;;3.10;;
11685;SDS011;5899;51.282;6.094;2023-02-24T07:06:44;7.30;;;3.20;;
11685;SDS011;5899;51.282;6.094;2023-02-24T07:09:12;5.90;;;2.90;;
11685;SDS011;5899;51.282;6.094;2023-02-24T07:11:40;5.07;;;2.88;;
11685;SDS011;5899;51.282;6.094;2023-02-24T07:14:21;6.35;;;3.22;;
11685;SDS011;5899;51.282;6.094;2023-02-24T07:16:47;5.97;;;2.95;;
11685;SDS011;5899;51.282;6.094;2023-02-24T07:19:20;7.88;;;3.08;;
11685;SDS011;5899;51.282;6.094;2023-02-24T07:21:48;7.43;;;3.05;;
11685;SDS011;5899;51.282;6.094;2023-02-24T07:24:17;6.72;;;2.90;;
11685;SDS011;5899;51.282;6.094;2023-02-24T07:26:53;5.45;;;2.95;;
11685;SDS011;5899;51.282;6.094;2023-02-24T07:29:20;5.97;;;2.90;;
11685;SDS011;5899;51.282;6.094;2023-02-24T07:31:47;7.35;;;2.90;;
11685;SDS011;5899;51.282;6.094;2023-02-24T07:34:13;7.35;;;2.70;;
11685;SDS011;5899;51.282;6.094;2023-02-24T07:36:52;5.87;;;2.90;;
11685;SDS011;5899;51.282;6.094;2023-02-24T07:39:19;7.25;;;3.17;;
11685;SDS011;5899;51.282;6.094;2023-02-24T07:41:47;7.43;;;3.40;;
11685;SDS011;5899;51.282;6.094;2023-02-24T07:44:19;5.22;;;2.92;;
11685;SDS011;5899;51.282;6.094;2023-02-24T07:46:47;9.82;;;3.45;;
11685;SDS011;5899;51.282;6.094;2023-02-24T07:49:15;6.07;;;2.83;;
11685;SDS011;5899;51.282;6.094;2023-02-24T07:51:43;10.33;;;3.60;;
11685;SDS011;5899;51.282;6.094;2023-02-24T07:54:12;5.70;;;3.10;;
11685;SDS011;5899;51.282;6.094;2023-02-24T07:56:40;6.53;;;2.95;;
11685;SDS011;5899;51.282;6.094;2023-02-24T07:59:13;9.07;;;3.17;;
11685;SDS011;5899;51.282;6.094;2023-02-24T08:01:43;6.82;;;3.08;;
11685;SDS011;5899;51.282;6.094;2023-02-24T08:04:17;6.05;;;3.03;;
11685;SDS011;5899;51.282;6.094;2023-02-24T08:06:44;6.22;;;2.90;;
11685;SDS011;5899;51.282;6.094;2023-02-24T08:09:17;6.05;;;2.85;;
11685;SDS011;5899;51.282;6.094;2023-02-24T08:11:45;6.53;;;3.25;;
11685;SDS011;5899;51.282;6.094;2023-02-24T08:14:16;6.75;;;2.92;;
11685;SDS011;5899;51.282;6.094;2023-02-24T08:16:48;4.35;;;2.45;;
11685;SDS011;5899;51.282;6.094;2023-02-24T08:19:15;8.23;;;2.75;;
11685;SDS011;5899;51.282;6.094;2023-02-24T08:21:45;4.68;;;3.13;;
11685;SDS011;5899;51.282;6.094;2023-02-24T08:24:16;5.13;;;2.50;;
11685;SDS011;5899;51.282;6.094;2023-02-24T08:26:44;8.07;;;2.75;;
11685;SDS011;5899;51.282;6.094;2023-02-24T08:29:11;6.60;;;2.78;;
11685;SDS011;5899;51.282;6.094;2023-02-24T08:31:37;6.03;;;2.73;;
11685;SDS011;5899;51.282;6.094;2023-02-24T08:34:04;9.55;;;3.53;;
11685;SDS011;5899;51.282;6.094;2023-02-24T08:36:30;4.95;;;2.50;;
11685;SDS011;5899;51.282;6.094;2023-02-24T08:39:00;8.02;;;2.70;;
11685;SDS011;5899;51.282;6.094;2023-02-24T08:41:28;8.57;;;2.95;;
11685;SDS011;5899;51.282;6.094;2023-02-24T08:44:24;8.30;;;3.33;;
11685;SDS011;5899;51.282;6.094;2023-02-24T08:46:54;7.47;;;2.87;;
11685;SDS011;5899;51.282;6.094;2023-02-24T08:49:21;6.05;;;2.55;;
11685;SDS011;5899;51.282;6.094;2023-02-24T08:51:49;6.85;;;3.00;;
11685;SDS011;5899;51.282;6.094;2023-02-24T08:54:17;5.80;;;2.75;;
11685;SDS011;5899;51.282;6.094;2023-02-24T08:56:54;5.85;;;2.53;;
11685;SDS011;5899;51.282;6.094;2023-02-24T08:59:21;5.70;;;3.03;;
11685;SDS011;5899;51.282;6.094;2023-02-24T09:02:03;6.60;;;3.13;;
11685;SDS011;5899;51.282;6.094;2023-02-24T09:04:42;5.60;;;3.20;;
11685;SDS011;5899;51.282;6.094;2023-02-24T09:07:16;4.27;;;2.80;;
11685;SDS011;5899;51.282;6.094;2023-02-24T09:09:43;5.93;;;2.92;;
11685;SDS011;5899;51.282;6.094;2023-02-24T09:12:12;7.93;;;3.20;;
11685;SDS011;5899;51.282;6.094;2023-02-24T09:14:49;7.15;;;3.25;;
11685;SDS011;5899;51.282;6.094;2023-02-24T09:17:24;9.82;;;3.20;;
11685;SDS011;5899;51.282;6.094;2023-02-24T09:20:15;8.15;;;3.40;;
11685;SDS011;5899;51.282;6.094;2023-02-24T09:23:11;10.82;;;4.43;;
11685;SDS011;5899;51.282;6.094;2023-02-24T09:25:44;11.05;;;3.25;;
11685;SDS011;5899;51.282;6.094;2023-02-24T09:28:16;9.32;;;3.75;;
11685;SDS011;5899;51.282;6.094;2023-02-24T09:30:44;9.52;;;4.00;;
11685;SDS011;5899;51.282;6.094;2023-02-24T09:33:21;7.38;;;3.58;;
11685;SDS011;5899;51.282;6.094;2023-02-24T09:35:53;9.45;;;3.65;;
11685;SDS011;5899;51.282;6.094;2023-02-24T09:38:27;7.43;;;3.17;;
11685;SDS011;5899;51.282;6.094;2023-02-24T09:41:26;5.23;;;3.40;;
11685;SDS011;5899;51.282;6.094;2023-02-24T09:44:00;10.57;;;3.15;;
11685;SDS011;5899;51.282;6.094;2023-02-24T09:46:35;7.25;;;3.22;;
11685;SDS011;5899;51.282;6.094;2023-02-24T09:49:06;6.80;;;3.13;;
11685;SDS011;5899;51.282;6.094;2023-02-24T09:51:37;8.30;;;3.27;;
11685;SDS011;5899;51.282;6.094;2023-02-24T09:54:11;7.00;;;3.08;;
11685;SDS011;5899;51.282;6.094;2023-02-24T09:56:40;8.07;;;3.40;;
11685;SDS011;5899;51.282;6.094;2023-02-24T09:59:11;6.95;;;3.20;;
11685;SDS011;5899;51.282;6.094;2023-02-24T10:01:47;4.95;;;2.75;;
11685;SDS011;5899;51.282;6.094;2023-02-24T10:04:28;4.97;;;2.55;;
11685;SDS011;5899;51.282;6.094;2023-02-24T10:07:02;10.23;;;3.03;;
11685;SDS011;5899;51.282;6.094;2023-02-24T10:09:29;7.15;;;3.08;;
11685;SDS011;5899;51.282;6.094;2023-02-24T10:12:00;8.45;;;2.97;;
11685;SDS011;5899;51.282;6.094;2023-02-24T10:14:31;6.30;;;3.13;;
11685;SDS011;5899;51.282;6.094;2023-02-24T10:17:07;7.40;;;3.17;;
11685;SDS011;5899;51.282;6.094;2023-02-24T10:19:49;9.48;;;3.00;;
11685;SDS011;5899;51.282;6.094;2023-02-24T10:22:22;6.07;;;3.13;;
11685;SDS011;5899;51.282;6.094;2023-02-24T10:24:57;10.35;;;3.03;;
11685;SDS011;5899;51.282;6.094;2023-02-24T10:27:36;10.17;;;3.00;;
11685;SDS011;5899;51.282;6.094;2023-02-24T10:30:06;6.82;;;2.85;;
11685;SDS011;5899;51.282;6.094;2023-02-24T10:32:45;7.07;;;3.10;;
11685;SDS011;5899;51.282;6.094;2023-02-24T10:35:15;7.32;;;2.80;;
11685;SDS011;5899;51.282;6.094;2023-02-24T10:37:42;5.88;;;2.72;;
11685;SDS011;5899;51.282;6.094;2023-02-24T10:40:09;8.13;;;3.00;;
11685;SDS011;5899;51.282;6.094;2023-02-24T10:42:37;8.50;;;3.25;;
11685;SDS011;5899;51.282;6.094;2023-02-24T10:45:11;7.77;;;2.60;;
11685;SDS011;5899;51.282;6.094;2023-02-24T10:47:41;7.40;;;2.80;;
11685;SDS011;5899;51.282;6.094;2023-02-24T10:50:20;8.10;;;2.65;;
11685;SDS011;5899;51.282;6.094;2023-02-24T10:52:48;6.73;;;2.77;;
11685;SDS011;5899;51.282;6.094;2023-02-24T10:55:36;9.80;;;3.15;;
11685;SDS011;5899;51.282;6.094;2023-02-24T10:58:21;7.47;;;2.80;;
11685;SDS011;5899;51.282;6.094;2023-02-24T11:01:05;8.07;;;2.97;;
11685;SDS011;5899;51.282;6.094;2023-02-24T11:03:45;8.57;;;3.08;;
11685;SDS011;5899;51.282;6.094;2023-02-24T11:06:27;8.05;;;2.80;;
11685;SDS011;5899;51.282;6.094;2023-02-24T11:09:17;3.70;;;2.50;;
11685;SDS011;5899;51.282;6.094;2023-02-24T11:11:57;9.60;;;2.97;;
11685;SDS011;5899;51.282;6.094;2023-02-24T11:14:45;7.72;;;2.47;;
11685;SDS011;5899;51.282;6.094;2023-02-24T11:17:30;8.10;;;2.92;;
11685;SDS011;5899;51.282;6.094;2023-02-24T11:19:58;5.57;;;2.53;;
11685;SDS011;5899;51.282;6.094;2023-02-24T11:22:29;9.25;;;2.72;;
11685;SDS011;5899;51.282;6.094;2023-02-24T11:24:58;8.88;;;2.80;;
11685;SDS011;5899;51.282;6.094;2023-02-24T11:27:30;5.68;;;2.65;;
11685;SDS011;5899;51.282;6.094;2023-02-24T11:30:02;7.50;;;3.30;;
11685;SDS011;5899;51.282;6.094;2023-02-24T11:32:36;6.65;;;3.10;;
11685;SDS011;5899;51.282;6.094;2023-02-24T11:35:08;7.35;;;3.00;;
11685;SDS011;5899;51.282;6.094;2023-02-24T11:37:38;10.07;;;4.10;;
11685;SDS011;5899;51.282;6.094;2023-02-24T11:40:08;8.48;;;3.50;;
11685;SDS011;5899;51.282;6.094;2023-02-24T11:42:38;10.00;;;3.03;;
11685;SDS011;5899;51.282;6.094;2023-02-24T11:45:06;6.20;;;2.92;;
11685;SDS011;5899;51.282;6.094;2023-02-24T11:47:38;7.28;;;3.47;;
11685;SDS011;5899;51.282;6.094;2023-02-24T11:50:19;7.37;;;2.83;;
11685;SDS011;5899;51.282;6.094;2023-02-24T11:52:50;8.02;;;3.13;;
11685;SDS011;5899;51.282;6.094;2023-02-24T11:55:20;8.30;;;3.50;;
11685;SDS011;5899;51.282;6.094;2023-02-24T11:57:49;4.55;;;2.92;;
11685;SDS011;5899;51.282;6.094;2023-02-24T12:00:19;7.45;;;3.17;;
11685;SDS011;5899;51.282;6.094;2023-02-24T12:02:48;7.70;;;3.00;;
11685;SDS011;5899;51.282;6.094;2023-02-24T12:05:17;8.15;;;3.35;;
11685;SDS011;5899;51.282;6.094;2023-02-24T12:07:46;7.57;;;2.85;;
11685;SDS011;5899;51.282;6.094;2023-02-24T12:10:18;7.30;;;3.28;;
11685;SDS011;5899;51.282;6.094;2023-02-24T12:12:48;11.63;;;3.80;;
11685;SDS011;5899;51.282;6.094;2023-02-24T12:15:18;5.80;;;3.08;;
11685;SDS011;5899;51.282;6.094;2023-02-24T12:17:48;10.32;;;4.18;;
11685;SDS011;5899;51.282;6.094;2023-02-24T12:20:25;6.85;;;3.58;;
11685;SDS011;5899;51.282;6.094;2023-02-24T12:22:54;6.22;;;4.18;;
11685;SDS011;5899;51.282;6.094;2023-02-24T12:25:23;6.80;;;3.22;;
11685;SDS011;5899;51.282;6.094;2023-02-24T12:27:55;8.53;;;3.40;;
11685;SDS011;5899;51.282;6.094;2023-02-24T12:30:36;8.18;;;3.28;;
11685;SDS011;5899;51.282;6.094;2023-02-24T12:33:25;7.85;;;3.20;;
11685;SDS011;5899;51.282;6.094;2023-02-24T12:35:54;8.23;;;3.80;;
11685;SDS011;5899;51.282;6.094;2023-02-24T12:38:29;5.97;;;3.15;;
11685;SDS011;5899;51.282;6.094;2023-02-24T12:41:09;7.90;;;3.80;;
11685;SDS011;5899;51.282;6.094;2023-02-24T12:43:41;8.45;;;3.20;;
11685;SDS011;5899;51.282;6.094;2023-02-24T12:46:13;8.25;;;3.78;;
11685;SDS011;5899;51.282;6.094;2023-02-24T12:48:50;8.80;;;3.33;;
11685;SDS011;5899;51.282;6.094;2023-02-24T12:51:20;5.18;;;3.38;;
11685;SDS011;5899;51.282;6.094;2023-02-24T12:53:50;10.27;;;4.82;;
11685;SDS011;5899;51.282;6.094;2023-02-24T12:56:25;11.02;;;4.50;;
11685;SDS011;5899;51.282;6.094;2023-02-24T12:58:56;6.10;;;3.90;;
11685;SDS011;5899;51.282;6.094;2023-02-24T13:01:27;8.10;;;3.83;;
11685;SDS011;5899;51.282;6.094;2023-02-24T13:04:03;6.40;;;3.67;;
11685;SDS011;5899;51.282;6.094;2023-02-24T13:06:36;8.50;;;4.63;;
11685;SDS011;5899;51.282;6.094;2023-02-24T13:09:07;9.70;;;5.38;;
11685;SDS011;5899;51.282;6.094;2023-02-24T13:11:41;11.60;;;5.80;;
11685;SDS011;5899;51.282;6.094;2023-02-24T13:14:11;7.77;;;5.20;;
11685;SDS011;5899;51.282;6.094;2023-02-24T13:16:39;12.85;;;5.90;;
11685;SDS011;5899;51.282;6.094;2023-02-24T13:19:16;13.35;;;5.38;;
11685;SDS011;5899;51.282;6.094;2023-02-24T13:22:00;10.45;;;6.75;;
11685;SDS011;5899;51.282;6.094;2023-02-24T13:24:28;13.00;;;6.63;;
11685;SDS011;5899;51.282;6.094;2023-02-24T13:27:04;9.43;;;7.25;;
11685;SDS011;5899;51.282;6.094;2023-02-24T13:29:40;12.10;;;6.13;;
11685;SDS011;5899;51.282;6.094;2023-02-24T13:32:19;9.55;;;6.18;;
11685;SDS011;5899;51.282;6.094;2023-02-24T13:34:48;11.20;;;6.50;;
11685;SDS011;5899;51.282;6.094;2023-02-24T13:37:24;9.15;;;6.97;;
11685;SDS011;5899;51.282;6.094;2023-02-24T13:39:51;10.43;;;7.40;;
11685;SDS011;5899;51.282;6.094;2023-02-24T13:42:22;11.20;;;7.10;;
11685;SDS011;5899;51.282;6.094;2023-02-24T13:45:00;11.25;;;7.18;;
11685;SDS011;5899;51.282;6.094;2023-02-24T13:50:18;10.60;;;7.70;;
11685;SDS011;5899;51.282;6.094;2023-02-24T13:52:49;14.65;;;8.50;;
11685;SDS011;5899;51.282;6.094;2023-02-24T13:55:33;12.05;;;7.72;;
11685;SDS011;5899;51.282;6.094;2023-02-24T14:00:55;13.32;;;8.05;;
11685;SDS011;5899;51.282;6.094;2023-02-24T14:03:25;13.88;;;7.95;;
11685;SDS011;5899;51.282;6.094;2023-02-24T14:05:52;14.13;;;9.93;;
11685;SDS011;5899;51.282;6.094;2023-02-24T14:08:20;13.73;;;8.20;;
11685;SDS011;5899;51.282;6.094;2023-02-24T14:10:49;12.57;;;8.40;;
11685;SDS011;5899;51.282;6.094;2023-02-24T14:13:18;12.52;;;8.68;;
11685;SDS011;5899;51.282;6.094;2023-02-24T14:15:49;14.17;;;9.17;;
11685;SDS011;5899;51.282;6.094;2023-02-24T14:18:19;14.70;;;9.43;;
11685;SDS011;5899;51.282;6.094;2023-02-24T14:20:45;13.85;;;9.77;;
11685;SDS011;5899;51.282;6.094;2023-02-24T14:23:19;18.77;;;10.00;;
11685;SDS011;5899;51.282;6.094;2023-02-24T14:25:50;17.02;;;9.88;;
11685;SDS011;5899;51.282;6.094;2023-02-24T14:28:20;13.98;;;10.32;;
11685;SDS011;5899;51.282;6.094;2023-02-24T14:30:53;14.57;;;10.40;;
11685;SDS011;5899;51.282;6.094;2023-02-24T14:33:24;14.75;;;10.10;;
11685;SDS011;5899;51.282;6.094;2023-02-24T14:35:51;15.05;;;10.43;;
11685;SDS011;5899;51.282;6.094;2023-02-24T14:38:28;14.55;;;10.68;;
11685;SDS011;5899;51.282;6.094;2023-02-24T14:40:54;18.27;;;10.05;;
11685;SDS011;5899;51.282;6.094;2023-02-24T14:43:23;12.80;;;10.37;;
11685;SDS011;5899;51.282;6.094;2023-02-24T14:45:50;16.70;;;11.77;;
11685;SDS011;5899;51.282;6.094;2023-02-24T14:48:22;15.93;;;11.88;;
11685;SDS011;5899;51.282;6.094;2023-02-24T14:50:51;17.63;;;11.57;;
11685;SDS011;5899;51.282;6.094;2023-02-24T14:53:18;15.60;;;11.90;;
11685;SDS011;5899;51.282;6.094;2023-02-24T14:55:49;14.85;;;11.93;;
11685;SDS011;5899;51.282;6.094;2023-02-24T14:58:17;16.75;;;12.70;;
11685;SDS011;5899;51.282;6.094;2023-02-24T15:00:46;16.15;;;12.40;;
11685;SDS011;5899;51.282;6.094;2023-02-24T15:03:15;14.80;;;12.55;;
11685;SDS011;5899;51.282;6.094;2023-02-24T15:05:43;16.05;;;11.88;;
11685;SDS011;5899;51.282;6.094;2023-02-24T15:08:15;14.77;;;10.97;;
11685;SDS011;5899;51.282;6.094;2023-02-24T15:10:45;16.45;;;12.50;;
11685;SDS011;5899;51.282;6.094;2023-02-24T15:13:15;13.73;;;12.18;;
11685;SDS011;5899;51.282;6.094;2023-02-24T15:15:43;13.93;;;11.63;;
11685;SDS011;5899;51.282;6.094;2023-02-24T15:18:11;11.52;;;9.77;;
11685;SDS011;5899;51.282;6.094;2023-02-24T15:20:41;15.10;;;10.93;;
11685;SDS011;5899;51.282;6.094;2023-02-24T15:23:21;13.70;;;10.82;;
11685;SDS011;5899;51.282;6.094;2023-02-24T15:25:49;14.50;;;11.35;;
11685;SDS011;5899;51.282;6.094;2023-02-24T15:28:23;14.18;;;9.82;;
11685;SDS011;5899;51.282;6.094;2023-02-24T15:31:00;15.00;;;11.05;;
11685;SDS011;5899;51.282;6.094;2023-02-24T15:33:34;14.60;;;10.55;;
11685;SDS011;5899;51.282;6.094;2023-02-24T15:36:31;13.50;;;10.20;;
11685;SDS011;5899;51.282;6.094;2023-02-24T15:38:51;11.65;;;10.20;;